createdAt,value
2023-04-09T00:01:33.714Z,61.28
2023-04-09T00:04:00.994Z,61.33
2023-04-09T00:06:27.752Z,61.15
2023-04-09T00:08:54.515Z,61.34
2023-04-09T00:11:21.603Z,61.43
2023-04-09T00:13:48.183Z,61.33
2023-04-09T00:16:14.787Z,61.25
2023-04-09T00:18:41.874Z,61.45
2023-04-09T00:21:08.891Z,61.46
2023-04-09T00:23:36.104Z,61.31
2023-04-09T00:26:02.687Z,61.26
2023-04-09T00:28:29.349Z,61.40
2023-04-09T00:30:57.226Z,61.34
2023-04-09T00:33:23.845Z,61.37
2023-04-09T00:35:50.558Z,61.41
2023-04-09T00:38:17.176Z,61.49
2023-04-09T00:40:43.861Z,61.52
2023-04-09T00:43:10.486Z,61.49
2023-04-09T00:45:37.480Z,61.36
2023-04-09T00:48:04.442Z,61.74
2023-04-09T00:50:31.012Z,61.55
2023-04-09T00:52:57.596Z,61.44
2023-04-09T00:55:25.107Z,61.57
2023-04-09T00:57:51.714Z,61.59
2023-04-09T01:00:18.351Z,61.26
2023-04-09T01:02:45.236Z,61.44
2023-04-09T01:05:12.768Z,61.49
2023-04-09T01:08:01.723Z,61.43
2023-04-09T01:10:28.272Z,61.43
2023-04-09T01:13:04.065Z,61.54
2023-04-09T01:15:36.272Z,61.49
2023-04-09T01:18:20.587Z,61.60
2023-04-09T01:20:49.768Z,61.65
2023-04-09T01:23:19.811Z,61.39
2023-04-09T01:25:52.445Z,61.65
2023-04-09T01:28:19.338Z,61.41
2023-04-09T01:30:50.788Z,61.74
2023-04-09T01:33:17.988Z,61.55
2023-04-09T01:35:46.602Z,61.56
2023-04-09T01:38:14.348Z,61.68
2023-04-09T01:40:41.025Z,61.66
2023-04-09T01:43:08.683Z,61.73
2023-04-09T01:45:35.232Z,61.92
2023-04-09T01:48:03.414Z,61.72
2023-04-09T01:50:30.304Z,61.90
2023-04-09T01:52:57.091Z,61.85
2023-04-09T01:55:23.783Z,61.74
2023-04-09T01:57:50.436Z,62.00
2023-04-09T02:00:17.158Z,61.75
2023-04-09T02:03:08.009Z,61.82
2023-04-09T02:05:37.376Z,61.96
2023-04-09T02:08:06.836Z,61.69
2023-04-09T02:10:35.843Z,61.60
2023-04-09T02:13:05.733Z,61.61
2023-04-09T02:15:34.497Z,62.07
2023-04-09T02:18:01.654Z,61.89
2023-04-09T02:20:28.393Z,61.71
2023-04-09T02:22:55.085Z,62.01
2023-04-09T02:25:22.584Z,61.81
2023-04-09T02:27:49.261Z,62.03
2023-04-09T02:30:15.972Z,61.95
2023-04-09T02:32:42.484Z,61.89
2023-04-09T02:35:09.186Z,62.04
2023-04-09T02:37:35.710Z,61.88
2023-04-09T02:40:02.161Z,61.71
2023-04-09T02:42:28.671Z,62.01
2023-04-09T02:44:55.671Z,61.86
2023-04-09T02:47:23.198Z,61.88
2023-04-09T02:49:49.981Z,61.90
2023-04-09T02:52:16.484Z,61.83
2023-04-09T02:54:43.048Z,61.97
2023-04-09T02:57:09.656Z,61.81
2023-04-09T02:59:36.166Z,61.85
2023-04-09T03:02:02.975Z,61.75
2023-04-09T03:04:29.625Z,61.83
2023-04-09T03:06:56.252Z,61.64
2023-04-09T03:09:22.836Z,61.93
2023-04-09T03:11:49.496Z,61.96
2023-04-09T03:14:16.166Z,61.70
2023-04-09T03:16:44.316Z,61.85
2023-04-09T03:19:10.871Z,61.91
2023-04-09T03:21:37.336Z,61.90
2023-04-09T03:24:05.263Z,61.71
2023-04-09T03:26:36.168Z,61.58
2023-04-09T03:29:05.761Z,61.77
2023-04-09T03:31:32.933Z,61.68
2023-04-09T03:33:59.560Z,61.86
2023-04-09T03:36:28.235Z,61.79
2023-04-09T03:39:09.425Z,61.70
2023-04-09T03:41:39.186Z,61.60
2023-04-09T03:44:10.490Z,61.82
2023-04-09T03:46:54.727Z,61.76
2023-04-09T03:49:21.411Z,61.76
2023-04-09T03:51:48.035Z,61.73
2023-04-09T03:54:15.278Z,61.67
2023-04-09T03:56:42.294Z,61.69
2023-04-09T03:59:12.164Z,61.80
2023-04-09T04:01:41.904Z,61.87
2023-04-09T04:04:09.496Z,61.91
2023-04-09T04:06:56.605Z,61.67
2023-04-09T04:09:43.316Z,61.64
2023-04-09T04:12:14.171Z,61.77
2023-04-09T04:15:01.163Z,61.67
2023-04-09T04:17:38.937Z,61.65
2023-04-09T04:20:24.263Z,61.67
2023-04-09T04:23:00.820Z,61.50
2023-04-09T04:25:27.626Z,61.79
2023-04-09T04:27:55.662Z,61.65
2023-04-09T04:30:27.928Z,61.57
2023-04-09T04:33:00.063Z,61.39
2023-04-09T04:35:30.924Z,61.60
2023-04-09T04:38:01.618Z,61.71
2023-04-09T04:40:29.050Z,61.63
2023-04-09T04:43:00.174Z,61.65
2023-04-09T04:45:27.304Z,61.71
2023-04-09T04:47:59.815Z,61.93
2023-04-09T04:50:27.038Z,61.53
2023-04-09T04:52:59.129Z,61.65
2023-04-09T04:55:30.480Z,61.67
2023-04-09T04:58:00.482Z,61.69
2023-04-09T05:00:32.128Z,61.68
2023-04-09T05:03:01.983Z,61.66
2023-04-09T05:05:53.025Z,61.81
2023-04-09T05:08:20.732Z,61.59
2023-04-09T05:10:51.275Z,61.79
2023-04-09T05:13:19.660Z,61.83
2023-04-09T05:15:46.403Z,61.66
2023-04-09T05:18:12.974Z,61.83
2023-04-09T05:20:39.701Z,61.78
2023-04-09T05:23:12.656Z,61.89
2023-04-09T05:25:48.518Z,61.73
2023-04-09T05:28:23.678Z,61.83
2023-04-09T05:31:00.980Z,61.62
2023-04-09T05:33:27.634Z,61.67
2023-04-09T05:35:54.186Z,61.66
2023-04-09T05:38:20.776Z,61.78
2023-04-09T05:40:54.913Z,61.72
2023-04-09T05:43:21.958Z,61.79
2023-04-09T05:45:48.576Z,61.80
2023-04-09T05:48:15.166Z,61.77
2023-04-09T05:50:53.730Z,61.69
2023-04-09T05:53:23.250Z,61.52
2023-04-09T05:55:49.932Z,61.57
2023-04-09T05:58:21.680Z,61.74
2023-04-09T06:00:48.931Z,61.55
2023-04-09T06:03:15.800Z,61.66
2023-04-09T06:05:42.653Z,61.78
2023-04-09T06:08:09.311Z,61.67
2023-04-09T06:10:36.339Z,61.51
2023-04-09T06:13:02.810Z,61.72
2023-04-09T06:15:29.735Z,61.69
2023-04-09T06:17:58.881Z,61.68
2023-04-09T06:20:26.127Z,61.79
2023-04-09T06:22:52.697Z,61.59
2023-04-09T06:25:19.549Z,61.50
2023-04-09T06:27:46.444Z,61.43
2023-04-09T06:30:13.110Z,61.62
2023-04-09T06:32:51.086Z,61.68
2023-04-09T06:35:20.597Z,61.55
2023-04-09T06:37:47.182Z,61.72
2023-04-09T06:40:14.224Z,61.41
2023-04-09T06:42:41.033Z,61.44
2023-04-09T06:45:31.365Z,61.50
2023-04-09T06:47:58.610Z,61.48
2023-04-09T06:50:25.287Z,61.68
2023-04-09T06:52:51.932Z,61.37
2023-04-09T06:55:18.753Z,61.57
2023-04-09T06:57:45.271Z,61.27
2023-04-09T07:00:12.287Z,61.52
2023-04-09T07:02:39.244Z,61.39
2023-04-09T07:05:06.210Z,61.31
2023-04-09T07:07:32.906Z,61.42
2023-04-09T07:09:59.642Z,61.29
2023-04-09T07:12:29.905Z,61.30
2023-04-09T07:15:03.228Z,61.23
2023-04-09T07:17:31.045Z,61.34
2023-04-09T07:19:57.721Z,61.15
2023-04-09T07:22:25.560Z,61.18
2023-04-09T07:24:55.791Z,61.29
2023-04-09T07:27:22.327Z,61.33
2023-04-09T07:29:49.031Z,61.26
2023-04-09T07:32:16.417Z,61.08
2023-04-09T07:34:43.545Z,61.05
2023-04-09T07:37:10.188Z,61.28
2023-04-09T07:39:36.851Z,61.04
2023-04-09T07:42:04.631Z,61.23
2023-04-09T07:44:37.685Z,61.07
2023-04-09T07:47:05.086Z,61.10
2023-04-09T07:49:31.865Z,61.08
2023-04-09T07:51:59.342Z,61.08
2023-04-09T07:54:25.943Z,61.04
2023-04-09T07:56:52.631Z,60.97
2023-04-09T07:59:19.336Z,61.12
2023-04-09T08:01:46.180Z,61.07
2023-04-09T08:04:13.800Z,61.16
2023-04-09T08:06:41.349Z,61.16
2023-04-09T08:09:07.876Z,61.02
2023-04-09T08:11:35.311Z,61.18
2023-04-09T08:14:03.681Z,61.19
2023-04-09T08:16:30.573Z,61.01
2023-04-09T08:18:57.383Z,60.93
2023-04-09T08:21:23.948Z,61.05
2023-04-09T08:23:51.282Z,60.87
2023-04-09T08:26:17.975Z,61.07
2023-04-09T08:28:44.538Z,61.05
2023-04-09T08:31:11.094Z,61.05
2023-04-09T08:33:37.792Z,61.15
2023-04-09T08:36:08.161Z,61.00
2023-04-09T08:38:34.810Z,60.99
2023-04-09T08:41:01.469Z,61.11
2023-04-09T08:43:37.406Z,61.00
2023-04-09T08:46:15.742Z,61.16
2023-04-09T08:48:46.631Z,61.13
2023-04-09T08:51:15.666Z,61.03
2023-04-09T08:54:03.252Z,61.14
2023-04-09T08:56:39.819Z,61.15
2023-04-09T08:59:06.345Z,61.01
2023-04-09T09:01:33.446Z,61.10
2023-04-09T09:04:00.407Z,61.07
2023-04-09T09:06:29.351Z,61.12
2023-04-09T09:09:02.847Z,60.86
2023-04-09T09:11:30.542Z,61.10
2023-04-09T09:13:57.760Z,60.88
2023-04-09T09:16:24.572Z,61.09
2023-04-09T09:18:53.248Z,60.97
2023-04-09T09:21:20.002Z,61.01
2023-04-09T09:23:48.431Z,61.06
2023-04-09T09:26:19.119Z,60.93
2023-04-09T09:28:48.591Z,60.90
2023-04-09T09:31:16.411Z,60.90
2023-04-09T09:33:43.044Z,60.74
2023-04-09T09:36:09.741Z,60.68
2023-04-09T09:38:53.622Z,60.82
2023-04-09T09:41:20.987Z,60.90
2023-04-09T09:43:48.335Z,60.99
2023-04-09T09:46:15.493Z,60.82
2023-04-09T09:48:42.592Z,60.88
2023-04-09T09:51:09.967Z,60.78
2023-04-09T09:53:37.701Z,60.87
2023-04-09T09:56:05.608Z,60.83
2023-04-09T09:58:36.888Z,60.76
2023-04-09T10:01:07.001Z,60.79
2023-04-09T10:03:34.858Z,60.63
2023-04-09T10:06:02.914Z,60.91
2023-04-09T10:08:30.519Z,60.74
2023-04-09T10:10:57.293Z,60.88
2023-04-09T10:13:32.276Z,60.81
2023-04-09T10:15:59.091Z,60.79
2023-04-09T10:18:26.383Z,60.75
2023-04-09T10:21:05.751Z,60.74
2023-04-09T10:23:38.533Z,60.78
2023-04-09T10:26:05.936Z,60.81
2023-04-09T10:28:32.405Z,60.67
2023-04-09T10:30:59.589Z,60.67
2023-04-09T10:33:27.107Z,60.82
2023-04-09T10:35:55.159Z,60.83
2023-04-09T10:38:37.956Z,60.60
2023-04-09T10:41:30.842Z,60.52
2023-04-09T10:43:57.642Z,60.77
2023-04-09T10:46:28.603Z,60.60
2023-04-09T10:49:07.814Z,60.50
2023-04-09T10:51:41.843Z,60.40
2023-04-09T10:54:27.437Z,60.42
2023-04-09T10:57:09.257Z,60.41
2023-04-09T10:59:36.471Z,60.44
2023-04-09T11:02:07.106Z,60.56
2023-04-09T11:04:54.029Z,60.44
2023-04-09T11:07:22.319Z,60.41
2023-04-09T11:09:48.921Z,60.28
2023-04-09T11:12:15.532Z,60.29
2023-04-09T11:14:42.205Z,60.29
2023-04-09T11:17:08.729Z,60.52
2023-04-09T11:19:35.617Z,60.40
2023-04-09T11:22:04.903Z,60.19
2023-04-09T11:24:40.206Z,60.12
2023-04-09T11:27:06.780Z,60.08
2023-04-09T11:29:35.052Z,60.23
2023-04-09T11:32:02.571Z,60.09
2023-04-09T11:34:29.270Z,60.16
2023-04-09T11:36:56.979Z,60.06
2023-04-09T11:39:23.475Z,60.08
2023-04-09T11:41:50.294Z,59.89
2023-04-09T11:44:16.954Z,59.99
2023-04-09T11:46:44.110Z,59.80
2023-04-09T11:49:10.968Z,59.98
2023-04-09T11:51:37.717Z,59.78
2023-04-09T11:54:07.942Z,59.71
2023-04-09T11:56:36.242Z,59.85
2023-04-09T11:59:03.375Z,59.84
2023-04-09T12:01:33.225Z,59.83
2023-04-09T12:04:00.831Z,59.85
2023-04-09T12:06:28.024Z,59.84
2023-04-09T12:08:56.265Z,59.67
2023-04-09T12:11:28.121Z,59.74
2023-04-09T12:14:02.784Z,59.55
2023-04-09T12:16:32.651Z,59.43
2023-04-09T12:19:02.657Z,59.49
2023-04-09T12:21:48.061Z,59.49
2023-04-09T12:24:15.441Z,59.55
2023-04-09T12:26:42.080Z,59.60
2023-04-09T12:29:08.696Z,59.37
2023-04-09T12:31:36.168Z,59.49
2023-04-09T12:34:02.929Z,59.24
2023-04-09T12:36:32.269Z,59.18
2023-04-09T12:38:58.859Z,59.22
2023-04-09T12:41:25.553Z,59.28
2023-04-09T12:43:52.374Z,59.18
2023-04-09T12:46:20.017Z,59.30
2023-04-09T12:48:46.796Z,59.29
2023-04-09T12:51:13.869Z,59.04
2023-04-09T12:53:40.926Z,59.02
2023-04-09T12:56:07.775Z,59.05
2023-04-09T12:58:34.329Z,59.03
2023-04-09T13:01:01.451Z,59.12
2023-04-09T13:03:29.179Z,59.13
2023-04-09T13:05:56.546Z,59.13
2023-04-09T13:08:23.132Z,59.08
2023-04-09T13:10:49.782Z,58.96
2023-04-09T13:13:16.555Z,59.04
2023-04-09T13:15:46.316Z,59.09
2023-04-09T13:18:13.378Z,59.19
2023-04-09T13:20:40.349Z,59.16
2023-04-09T13:23:06.916Z,59.11
2023-04-09T13:25:33.558Z,59.24
2023-04-09T13:28:00.310Z,59.21
2023-04-09T13:30:26.824Z,59.00
2023-04-09T13:32:53.490Z,59.07
2023-04-09T13:35:20.155Z,59.05
2023-04-09T13:37:49.453Z,58.86
2023-04-09T13:40:16.466Z,58.95
2023-04-09T13:42:42.982Z,59.01
2023-04-09T13:45:09.764Z,58.77
2023-04-09T13:47:36.711Z,58.74
2023-04-09T13:50:03.802Z,58.75
2023-04-09T13:52:31.788Z,58.56
2023-04-09T13:54:58.429Z,58.66
2023-04-09T13:57:24.908Z,58.38
2023-04-09T13:59:51.624Z,58.26
2023-04-09T14:02:19.231Z,58.28
2023-04-09T14:04:45.968Z,58.36
2023-04-09T14:07:12.582Z,58.21
2023-04-09T14:09:39.162Z,58.16
2023-04-09T14:12:05.909Z,58.08
2023-04-09T14:14:32.679Z,58.07
2023-04-09T14:16:59.342Z,58.12
2023-04-09T14:19:25.903Z,58.00
2023-04-09T14:21:53.347Z,58.14
2023-04-09T14:24:22.968Z,57.93
2023-04-09T14:26:51.424Z,57.82
2023-04-09T14:29:18.022Z,57.93
2023-04-09T14:31:44.783Z,57.87
2023-04-09T14:34:11.369Z,57.90
2023-04-09T14:36:37.884Z,57.77
2023-04-09T14:39:04.579Z,57.76
2023-04-09T14:41:34.213Z,57.76
2023-04-09T14:44:00.931Z,57.77
2023-04-09T14:46:27.739Z,57.78
2023-04-09T14:48:54.787Z,57.83
2023-04-09T14:51:21.672Z,57.67
2023-04-09T14:53:48.620Z,57.55
2023-04-09T14:56:15.197Z,57.68
2023-04-09T14:58:41.764Z,57.60
2023-04-09T15:01:08.439Z,57.58
2023-04-09T15:03:35.433Z,57.57
2023-04-09T15:06:02.279Z,57.46
2023-04-09T15:08:28.913Z,57.50
2023-04-09T15:10:55.516Z,57.59
2023-04-09T15:13:22.285Z,57.46
2023-04-09T15:15:48.953Z,57.40
2023-04-09T15:18:15.630Z,57.41
2023-04-09T15:20:43.393Z,57.41
2023-04-09T15:23:10.777Z,57.36
2023-04-09T15:25:37.510Z,57.39
2023-04-09T15:28:04.395Z,57.26
2023-04-09T15:30:31.180Z,57.34
2023-04-09T15:32:57.714Z,57.29
2023-04-09T15:35:25.034Z,57.19
2023-04-09T15:37:51.821Z,57.23
2023-04-09T15:40:18.708Z,57.26
2023-04-09T15:42:45.277Z,57.22
2023-04-09T15:45:13.129Z,57.11
2023-04-09T15:47:39.657Z,57.13
2023-04-09T15:50:06.713Z,57.08
2023-04-09T15:52:33.463Z,57.03
2023-04-09T15:54:59.978Z,57.16
2023-04-09T15:57:26.591Z,57.17
2023-04-09T15:59:53.118Z,57.12
2023-04-09T16:02:19.978Z,57.18
2023-04-09T16:04:46.737Z,57.03
2023-04-09T16:07:16.604Z,57.08
2023-04-09T16:09:43.319Z,57.12
2023-04-09T16:12:10.133Z,57.08
2023-04-09T16:14:37.027Z,56.94
2023-04-09T16:17:03.835Z,56.95
2023-04-09T16:19:30.621Z,57.00
2023-04-09T16:21:57.629Z,57.05
2023-04-09T16:24:24.124Z,56.98
2023-04-09T16:26:50.825Z,56.99
2023-04-09T16:29:17.844Z,57.10
2023-04-09T16:31:44.540Z,57.06
2023-04-09T16:34:11.327Z,57.08
2023-04-09T16:36:38.073Z,57.03
2023-04-09T16:39:04.973Z,57.09
2023-04-09T16:41:32.042Z,57.10
2023-04-09T16:43:58.953Z,56.98
2023-04-09T16:46:25.641Z,56.92
2023-04-09T16:48:52.531Z,57.02
2023-04-09T16:51:19.351Z,57.11
2023-04-09T16:53:45.952Z,57.20
2023-04-09T16:56:12.567Z,57.21
2023-04-09T16:58:39.100Z,57.19
2023-04-09T17:01:05.776Z,57.22
2023-04-09T17:03:32.361Z,57.27
2023-04-09T17:05:58.962Z,57.40
2023-04-09T17:08:25.653Z,57.28
2023-04-09T17:10:52.785Z,57.38
2023-04-09T17:13:19.532Z,57.40
2023-04-09T17:15:46.182Z,57.49
2023-04-09T17:18:12.864Z,57.48
2023-04-09T17:20:39.585Z,57.42
2023-04-09T17:23:06.661Z,57.35
2023-04-09T17:25:33.282Z,57.29
2023-04-09T17:28:01.568Z,57.10
2023-04-09T17:30:28.206Z,56.94
2023-04-09T17:32:54.761Z,56.78
2023-04-09T17:35:21.440Z,56.61
2023-04-09T17:37:48.058Z,56.52
2023-04-09T17:40:15.597Z,56.21
2023-04-09T17:42:42.203Z,55.85
2023-04-09T17:45:09.159Z,55.82
2023-04-09T17:47:35.775Z,55.61
2023-04-09T17:50:02.683Z,55.56
2023-04-09T17:52:29.965Z,55.60
2023-04-09T17:54:56.727Z,55.40
2023-04-09T17:57:23.479Z,55.49
2023-04-09T17:59:50.198Z,55.32
2023-04-09T18:02:16.924Z,55.42
2023-04-09T18:04:43.897Z,55.42
2023-04-09T18:07:10.713Z,55.49
2023-04-09T18:09:39.179Z,55.50
2023-04-09T18:12:06.169Z,55.52
2023-04-09T18:14:32.691Z,55.64
2023-04-09T18:16:59.473Z,55.68
2023-04-09T18:19:26.060Z,55.70
2023-04-09T18:21:52.541Z,55.64
2023-04-09T18:24:19.229Z,55.60
2023-04-09T18:26:45.704Z,55.60
2023-04-09T18:29:12.670Z,55.78
2023-04-09T18:31:39.323Z,55.72
2023-04-09T18:34:06.162Z,55.90
2023-04-09T18:36:32.680Z,55.86
2023-04-09T18:38:59.230Z,55.95
2023-04-09T18:41:26.825Z,55.96
2023-04-09T18:43:54.005Z,55.96
2023-04-09T18:46:20.836Z,56.11
2023-04-09T18:48:47.499Z,56.16
2023-04-09T18:51:14.792Z,56.21
2023-04-09T18:53:41.973Z,56.30
2023-04-09T18:56:09.320Z,56.36
2023-04-09T18:58:36.407Z,56.39
2023-04-09T19:01:12.213Z,56.44
2023-04-09T19:03:39.968Z,56.65
2023-04-09T19:06:14.317Z,56.67
2023-04-09T19:08:41.168Z,56.74
2023-04-09T19:11:08.021Z,56.91
2023-04-09T19:13:34.974Z,56.99
2023-04-09T19:16:02.241Z,57.10
2023-04-09T19:18:29.203Z,57.26
2023-04-09T19:20:55.816Z,57.09
2023-04-09T19:23:22.353Z,56.93
2023-04-09T19:25:53.445Z,56.70
2023-04-09T19:28:20.222Z,56.51
2023-04-09T19:30:46.997Z,56.37
2023-04-09T19:33:13.652Z,56.40
2023-04-09T19:35:43.258Z,56.17
2023-04-09T19:38:10.065Z,55.79
2023-04-09T19:40:36.776Z,55.84
2023-04-09T19:43:03.348Z,55.66
2023-04-09T19:45:30.007Z,55.72
2023-04-09T19:47:56.640Z,55.73
2023-04-09T19:50:23.325Z,55.54
2023-04-09T19:52:49.981Z,55.37
2023-04-09T19:55:16.629Z,55.31
2023-04-09T19:57:44.302Z,55.35
2023-04-09T20:00:11.453Z,55.23
2023-04-09T20:02:39.664Z,55.29
2023-04-09T20:05:06.489Z,55.28
2023-04-09T20:07:33.085Z,55.03
2023-04-09T20:09:59.882Z,55.28
2023-04-09T20:12:29.438Z,54.95
2023-04-09T20:14:57.356Z,55.25
2023-04-09T20:17:24.424Z,55.45
2023-04-09T20:19:51.365Z,55.43
2023-04-09T20:22:18.171Z,55.35
2023-04-09T20:24:44.823Z,55.48
2023-04-09T20:27:11.298Z,55.72
2023-04-09T20:29:37.894Z,55.72
2023-04-09T20:32:04.602Z,55.64
2023-04-09T20:34:31.569Z,55.63
2023-04-09T20:36:58.511Z,55.70
2023-04-09T20:39:26.965Z,55.62
2023-04-09T20:41:53.905Z,55.99
2023-04-09T20:44:20.528Z,55.84
2023-04-09T20:46:47.074Z,56.15
2023-04-09T20:49:13.649Z,56.21
2023-04-09T20:51:40.591Z,56.35
2023-04-09T20:54:07.195Z,56.55
2023-04-09T20:56:34.502Z,56.38
2023-04-09T20:59:01.450Z,56.58
2023-04-09T21:01:28.636Z,56.61
2023-04-09T21:03:55.428Z,56.79
2023-04-09T21:06:21.995Z,56.75
2023-04-09T21:08:48.590Z,56.82
2023-04-09T21:11:15.471Z,56.98
2023-04-09T21:13:53.933Z,57.01
2023-04-09T21:16:21.541Z,57.16
2023-04-09T21:18:48.933Z,57.13
2023-04-09T21:21:15.696Z,57.27
2023-04-09T21:23:42.302Z,57.22
2023-04-09T21:26:10.108Z,57.30
2023-04-09T21:28:36.706Z,57.35
2023-04-09T21:31:03.721Z,57.38
2023-04-09T21:33:30.785Z,57.51
2023-04-09T21:35:57.858Z,57.49
2023-04-09T21:38:24.546Z,57.76
2023-04-09T21:40:51.295Z,57.65
2023-04-09T21:43:17.813Z,57.68
2023-04-09T21:45:44.419Z,57.62
2023-04-09T21:48:12.392Z,57.83
2023-04-09T21:50:39.051Z,57.80
2023-04-09T21:53:05.694Z,57.92
2023-04-09T21:55:32.345Z,57.96
2023-04-09T21:57:58.828Z,57.93
2023-04-09T22:00:25.630Z,58.01
2023-04-09T22:02:52.584Z,57.96
2023-04-09T22:05:19.416Z,57.85
2023-04-09T22:07:45.980Z,58.00
2023-04-09T22:10:12.523Z,57.99
2023-04-09T22:12:39.123Z,58.06
2023-04-09T22:15:05.982Z,58.12
2023-04-09T22:17:32.752Z,58.03
2023-04-09T22:19:59.462Z,57.96
2023-04-09T22:22:26.130Z,58.14
2023-04-09T22:24:52.842Z,58.16
2023-04-09T22:27:19.382Z,58.13
2023-04-09T22:29:46.189Z,58.08
2023-04-09T22:32:12.764Z,58.10
2023-04-09T22:34:39.408Z,58.25
2023-04-09T22:37:07.398Z,58.30
2023-04-09T22:39:33.984Z,58.14
2023-04-09T22:42:01.828Z,58.10
2023-04-09T22:44:28.407Z,58.13
2023-04-09T22:46:55.063Z,58.08
2023-04-09T22:49:23.722Z,58.10
2023-04-09T22:51:50.438Z,58.14
2023-04-09T22:54:17.103Z,58.07
2023-04-09T22:56:44.812Z,58.04
2023-04-09T22:59:11.318Z,58.18
2023-04-09T23:01:38.041Z,58.20
2023-04-09T23:04:04.692Z,58.31
2023-04-09T23:06:31.223Z,58.36
2023-04-09T23:08:59.793Z,58.42
2023-04-09T23:11:27.368Z,58.40
2023-04-09T23:13:54.063Z,58.50
2023-04-09T23:16:21.072Z,58.49
2023-04-09T23:18:47.773Z,58.53
2023-04-09T23:21:14.216Z,58.46
2023-04-09T23:23:40.876Z,58.55
2023-04-09T23:26:07.532Z,58.66
2023-04-09T23:28:34.147Z,58.55
2023-04-09T23:31:01.198Z,58.49
2023-04-09T23:33:28.014Z,58.57
2023-04-09T23:35:54.747Z,58.69
2023-04-09T23:38:21.485Z,58.53
2023-04-09T23:40:48.599Z,58.67
2023-04-09T23:43:15.123Z,58.62
2023-04-09T23:45:42.751Z,58.73
2023-04-09T23:48:09.792Z,58.69
2023-04-09T23:50:39.788Z,58.63
2023-04-09T23:53:06.686Z,58.66
2023-04-09T23:55:34.196Z,58.75
2023-04-09T23:58:00.989Z,58.66
